createdAt,value
2019-04-11T00:00:07.019Z,101600.77
2019-04-11T00:02:33.070Z,101598.70
2019-04-11T00:04:58.782Z,101601.47
2019-04-11T00:07:24.867Z,101597.89
2019-04-11T00:09:51.208Z,101604.66
2019-04-11T00:12:16.730Z,101603.17
2019-04-11T00:14:42.375Z,101607.94
2019-04-11T00:17:07.908Z,101609.62
2019-04-11T00:19:33.660Z,101606.58
2019-04-11T00:21:59.462Z,101610.45
2019-04-11T00:24:25.256Z,101604.00
2019-04-11T00:26:50.774Z,101605.39
2019-04-11T00:29:16.437Z,101605.97
2019-04-11T00:31:41.800Z,101598.27
2019-04-11T00:34:08.803Z,101602.41
2019-04-11T00:36:34.670Z,101598.57
2019-04-11T00:39:01.183Z,101606.73
2019-04-11T00:41:28.004Z,101599.87
2019-04-11T00:43:54.655Z,101601.59
2019-04-11T00:46:20.426Z,101603.91
2019-04-11T00:48:46.117Z,101606.27
2019-04-11T00:51:12.005Z,101620.14
2019-04-11T00:53:38.304Z,101604.45
2019-04-11T00:56:04.472Z,101615.11
2019-04-11T00:58:30.370Z,101612.43
2019-04-11T01:00:56.087Z,101618.49
2019-04-11T01:03:22.150Z,101615.69
2019-04-11T01:05:48.154Z,101616.59
2019-04-11T01:08:13.868Z,101607.45
2019-04-11T01:10:39.839Z,101616.53
2019-04-11T01:13:05.451Z,101612.67
2019-04-11T01:15:31.412Z,101613.09
2019-04-11T01:17:57.947Z,101616.75
2019-04-11T01:20:23.812Z,101613.63
2019-04-11T01:22:49.322Z,101614.42
2019-04-11T01:25:15.300Z,101613.16
2019-04-11T01:27:41.207Z,101611.05
2019-04-11T01:30:11.716Z,101616.57
2019-04-11T01:32:38.151Z,101615.12
2019-04-11T01:35:04.791Z,101616.45
2019-04-11T01:37:31.423Z,101617.81
2019-04-11T01:39:59.487Z,101621.75
2019-04-11T01:42:25.110Z,101622.92
2019-04-11T01:44:50.579Z,101621.30
2019-04-11T01:47:22.901Z,101623.12
2019-04-11T01:49:48.412Z,101625.19
2019-04-11T01:52:14.185Z,101618.78
2019-04-11T01:54:39.646Z,101626.41
2019-04-11T01:57:05.444Z,101625.40
2019-04-11T01:59:31.252Z,101624.47
2019-04-11T02:02:19.164Z,101626.97
2019-04-11T02:05:04.802Z,101630.92
2019-04-11T02:07:30.994Z,101627.74
2019-04-11T02:09:56.780Z,101634.68
2019-04-11T02:12:22.548Z,101635.02
2019-04-11T02:14:48.055Z,101640.27
2019-04-11T02:17:14.651Z,101643.94
2019-04-11T02:19:40.565Z,101644.66
2019-04-11T02:22:24.893Z,101642.53
2019-04-11T02:24:56.329Z,101650.83
2019-04-11T02:27:25.983Z,101649.86
2019-04-11T02:29:52.940Z,101646.70
2019-04-11T02:32:22.549Z,101648.19
2019-04-11T02:34:48.069Z,101651.57
2019-04-11T02:37:13.513Z,101662.22
2019-04-11T02:39:40.941Z,101658.78
2019-04-11T02:42:07.371Z,101657.48
2019-04-11T02:44:53.204Z,101654.83
2019-04-11T02:47:08.363Z,101658.21
2019-04-11T02:49:28.588Z,101653.02
2019-04-11T02:51:55.931Z,101655.33
2019-04-11T02:54:24.449Z,101653.45
2019-04-11T02:56:52.337Z,101659.30
2019-04-11T02:59:17.664Z,101660.80
2019-04-11T03:01:43.996Z,101662.00
2019-04-11T03:04:10.494Z,101658.91
2019-04-11T03:06:36.325Z,101660.23
2019-04-11T03:09:02.512Z,101660.95
2019-04-11T03:11:30.214Z,101661.61
2019-04-11T03:13:58.404Z,101670.95
2019-04-11T03:16:41.289Z,101659.95
2019-04-11T03:19:05.253Z,101665.05
2019-04-11T03:21:22.077Z,101661.23
2019-04-11T03:23:49.194Z,101662.69
2019-04-11T03:26:16.583Z,101668.08
2019-04-11T03:28:46.643Z,101671.95
2019-04-11T03:31:47.366Z,101679.25
2019-04-11T03:37:00.572Z,101678.16
2019-04-11T03:38:53.401Z,101683.06
2019-04-11T03:41:15.875Z,101677.94
2019-04-11T03:43:37.693Z,101681.38
2019-04-11T03:46:17.166Z,101685.33
2019-04-11T03:48:33.448Z,101684.58
2019-04-11T03:50:52.421Z,101686.23
2019-04-11T03:53:17.751Z,101688.31
2019-04-11T03:55:45.400Z,101690.83
2019-04-11T03:58:13.101Z,101691.16
2019-04-11T04:00:43.021Z,101695.33
2019-04-11T04:03:08.953Z,101688.18
2019-04-11T04:05:36.749Z,101693.28
2019-04-11T04:08:03.970Z,101702.44
2019-04-11T04:10:31.807Z,101695.70
2019-04-11T04:12:58.409Z,101696.55
2019-04-11T04:16:04.088Z,101698.25
2019-04-11T04:18:38.118Z,101700.30
2019-04-11T04:21:28.786Z,101705.26
2019-04-11T04:24:01.343Z,101711.23
2019-04-11T04:26:26.942Z,101708.73
2019-04-11T04:28:53.455Z,101716.31
2019-04-11T04:31:19.168Z,101718.09
2019-04-11T04:33:45.585Z,101718.19
2019-04-11T04:36:13.884Z,101719.13
2019-04-11T04:38:41.373Z,101721.52
2019-04-11T04:41:21.085Z,101725.23
2019-04-11T04:43:36.669Z,101735.83
2019-04-11T04:46:20.359Z,101735.08
2019-04-11T04:48:30.142Z,101745.63
2019-04-11T04:50:57.639Z,101738.66
2019-04-11T04:53:27.683Z,101733.88
2019-04-11T04:55:52.809Z,101745.24
2019-04-11T04:58:20.219Z,101747.80
2019-04-11T05:00:45.684Z,101743.78
2019-04-11T05:03:11.199Z,101752.39
2019-04-11T05:05:38.268Z,101750.66
2019-04-11T05:08:05.959Z,101757.84
2019-04-11T05:10:32.766Z,101757.41
2019-04-11T05:12:59.848Z,101761.34
2019-04-11T05:15:26.143Z,101760.21
2019-04-11T05:17:53.314Z,101763.86
2019-04-11T05:20:19.768Z,101758.58
2019-04-11T05:22:45.400Z,101771.56
2019-04-11T05:25:11.204Z,101776.02
2019-04-11T05:27:37.789Z,101769.50
2019-04-11T05:30:04.993Z,101770.09
2019-04-11T05:32:31.626Z,101764.14
2019-04-11T05:34:57.126Z,101769.09
2019-04-11T05:37:24.547Z,101768.42
2019-04-11T05:39:50.546Z,101772.80
2019-04-11T05:42:19.382Z,101773.74
2019-04-11T05:44:43.465Z,101773.25
2019-04-11T05:47:09.182Z,101784.86
2019-04-11T05:49:46.695Z,101781.12
2019-04-11T05:52:12.593Z,101786.09
2019-04-11T05:54:49.042Z,101785.86
2019-04-11T05:57:15.298Z,101785.87
2019-04-11T05:59:43.262Z,101790.22
2019-04-11T06:02:30.991Z,101792.57
2019-04-11T06:05:03.011Z,101786.26
2019-04-11T06:07:34.904Z,101793.67
2019-04-11T06:10:08.586Z,101793.73
2019-04-11T06:12:43.528Z,101797.55
2019-04-11T06:15:16.110Z,101799.70
2019-04-11T06:17:42.731Z,101802.17
2019-04-11T06:20:39.761Z,101800.13
2019-04-11T06:23:17.120Z,101809.37
2019-04-11T06:25:55.576Z,101807.20
2019-04-11T06:28:24.385Z,101806.28
2019-04-11T06:31:18.148Z,101815.98
2019-04-11T06:33:56.920Z,101815.37
2019-04-11T06:36:45.286Z,101817.13
2019-04-11T06:39:23.023Z,101818.25
2019-04-11T06:42:24.552Z,101814.88
2019-04-11T06:45:17.677Z,101821.29
2019-04-11T06:48:02.063Z,101820.13
2019-04-11T06:50:41.710Z,101828.05
2019-04-11T06:53:08.884Z,101825.53
2019-04-11T06:56:00.596Z,101829.70
2019-04-11T06:58:31.818Z,101831.88
2019-04-11T07:01:01.636Z,101822.86
2019-04-11T07:03:30.873Z,101825.39
2019-04-11T07:05:59.393Z,101828.62
2019-04-11T07:08:28.270Z,101818.08
2019-04-11T07:10:58.925Z,101824.03
2019-04-11T07:13:47.651Z,101826.40
2019-04-11T07:16:13.967Z,101821.97
2019-04-11T07:18:59.208Z,101831.02
2019-04-11T07:21:29.378Z,101819.08
2019-04-11T07:24:12.368Z,101825.30
2019-04-11T07:26:47.912Z,101823.59
2019-04-11T07:29:33.574Z,101831.61
2019-04-11T07:32:16.299Z,101828.61
2019-04-11T07:35:17.377Z,101826.97
2019-04-11T07:37:44.773Z,101830.16
2019-04-11T07:40:33.302Z,101827.11
2019-04-11T07:43:13.561Z,101826.44
2019-04-11T07:45:47.085Z,101834.67
2019-04-11T07:48:17.200Z,101835.53
2019-04-11T07:50:44.386Z,101830.28
2019-04-11T07:53:10.922Z,101831.75
2019-04-11T07:55:36.579Z,101843.61
2019-04-11T07:58:21.858Z,101840.43
2019-04-11T08:01:01.514Z,101842.61
2019-04-11T08:03:51.611Z,101840.72
2019-04-11T08:06:54.656Z,101841.47
2019-04-11T08:09:39.902Z,101835.30
2019-04-11T08:12:17.833Z,101844.91
2019-04-11T08:15:01.499Z,101847.06
2019-04-11T08:17:37.047Z,101842.08
2019-04-11T08:20:15.350Z,101845.53
2019-04-11T08:22:59.688Z,101849.08
2019-04-11T08:25:42.223Z,101851.80
2019-04-11T08:28:13.613Z,101854.05
2019-04-11T08:30:43.319Z,101854.05
2019-04-11T08:33:09.158Z,101851.63
2019-04-11T08:35:55.188Z,101846.06
2019-04-11T08:38:38.734Z,101848.56
2019-04-11T08:41:27.365Z,101847.50
2019-04-11T08:43:53.229Z,101863.05
2019-04-11T08:46:22.630Z,101854.69
2019-04-11T08:48:53.045Z,101859.46
2019-04-11T08:51:19.183Z,101853.37
2019-04-11T08:54:07.031Z,101859.25
2019-04-11T08:56:32.535Z,101859.72
2019-04-11T08:59:46.121Z,101857.55
2019-04-11T09:02:14.345Z,101854.37
2019-04-11T09:05:08.984Z,101857.45
2019-04-11T09:07:33.805Z,101856.53
2019-04-11T09:10:17.935Z,101861.35
2019-04-11T09:12:50.965Z,101857.05
2019-04-11T09:15:35.476Z,101854.42
2019-04-11T09:18:10.385Z,101855.11
2019-04-11T09:20:53.927Z,101862.35
2019-04-11T09:23:23.810Z,101851.82
2019-04-11T09:26:07.600Z,101849.28
2019-04-11T09:28:39.770Z,101850.78
2019-04-11T09:31:43.754Z,101850.25
2019-04-11T09:34:25.976Z,101853.99
2019-04-11T09:37:09.482Z,101849.06
2019-04-11T09:39:46.123Z,101850.96
2019-04-11T09:42:39.659Z,101848.98
2019-04-11T09:45:27.988Z,101841.41
2019-04-11T09:48:14.948Z,101836.29
2019-04-11T09:51:07.350Z,101842.70
2019-04-11T09:53:34.493Z,101844.98
2019-04-11T09:56:18.835Z,101838.13
2019-04-11T09:58:45.354Z,101843.11
2019-04-11T10:01:30.726Z,101840.16
2019-04-11T10:03:57.259Z,101848.09
2019-04-11T10:06:40.993Z,101850.52
2019-04-11T10:09:11.494Z,101852.35
2019-04-11T10:11:54.888Z,101848.02
2019-04-11T10:14:21.729Z,101844.13
2019-04-11T10:17:05.025Z,101840.58
2019-04-11T10:19:52.518Z,101833.94
2019-04-11T10:22:49.196Z,101826.07
2019-04-11T10:25:21.215Z,101834.02
2019-04-11T10:28:21.721Z,101849.99
2019-04-11T10:31:22.332Z,101839.38
2019-04-11T10:34:06.121Z,101840.97
2019-04-11T10:36:41.550Z,101841.30
2019-04-11T10:39:41.727Z,101835.53
2019-04-11T10:42:10.536Z,101831.61
2019-04-11T10:44:43.857Z,101841.08
2019-04-11T10:47:14.550Z,101843.95
2019-04-11T10:50:09.107Z,101839.12
2019-04-11T10:52:38.440Z,101845.18
2019-04-11T10:55:06.935Z,101836.26
2019-04-11T10:57:36.138Z,101834.35
2019-04-11T11:00:03.224Z,101832.63
2019-04-11T11:02:41.813Z,101837.99
2019-04-11T11:05:09.317Z,101839.71
2019-04-11T11:07:35.043Z,101839.19
2019-04-11T11:10:09.299Z,101841.42
2019-04-11T11:12:59.457Z,101845.36
2019-04-11T11:15:31.554Z,101842.28
2019-04-11T11:18:48.215Z,101839.86
2019-04-11T11:21:03.821Z,101843.48
2019-04-11T11:23:49.126Z,101840.86
2019-04-11T11:26:19.759Z,101847.62
2019-04-11T11:28:48.856Z,101846.75
2019-04-11T11:31:34.452Z,101843.30
2019-04-11T11:33:59.904Z,101837.94
2019-04-11T11:36:55.186Z,101845.55
2019-04-11T11:39:33.389Z,101841.57
2019-04-11T11:42:28.261Z,101843.72
2019-04-11T11:45:02.401Z,101850.00
2019-04-11T11:47:44.902Z,101841.69
2019-04-11T11:50:18.231Z,101844.08
2019-04-11T11:53:08.199Z,101843.45
2019-04-11T11:55:35.602Z,101837.05
2019-04-11T11:58:19.931Z,101832.36
2019-04-11T12:00:48.049Z,101833.74
2019-04-11T12:03:46.719Z,101838.08
2019-04-11T12:06:19.781Z,101838.00
2019-04-11T12:09:09.915Z,101838.34
2019-04-11T12:12:51.847Z,101837.60
2019-04-11T12:19:18.053Z,101830.44
2019-04-11T12:21:55.862Z,101829.53
2019-04-11T12:24:34.415Z,101838.34
2019-04-11T12:27:27.130Z,101833.03
2019-04-11T12:30:23.500Z,101833.06
2019-04-11T12:33:07.175Z,101829.89
2019-04-11T12:35:57.885Z,101818.84
2019-04-11T12:38:34.679Z,101821.03
2019-04-11T12:41:13.324Z,101819.25
2019-04-11T12:43:58.060Z,101809.90
2019-04-11T12:46:54.152Z,101811.00
2019-04-11T12:49:30.965Z,101802.27
2019-04-11T12:52:14.660Z,101810.60
2019-04-11T12:54:41.404Z,101806.06
2019-04-11T12:57:15.337Z,101802.33
2019-04-11T12:59:41.765Z,101805.64
2019-04-11T13:02:33.710Z,101803.83
2019-04-11T13:05:00.169Z,101803.16
2019-04-11T13:07:45.803Z,101807.66
2019-04-11T13:10:25.351Z,101807.22
2019-04-11T13:13:19.410Z,101800.23
2019-04-11T13:15:48.267Z,101794.02
2019-04-11T13:18:23.555Z,101790.51
2019-04-11T13:20:56.806Z,101802.14
2019-04-11T13:23:40.452Z,101794.79
2019-04-11T13:26:43.300Z,101795.94
2019-04-11T13:29:24.242Z,101797.55
2019-04-11T13:32:07.756Z,101792.61
2019-04-11T13:34:34.329Z,101785.20
2019-04-11T13:37:17.991Z,101791.30
2019-04-11T13:40:07.888Z,101786.47
2019-04-11T13:42:51.903Z,101787.97
2019-04-11T13:45:30.264Z,101787.92
2019-04-11T13:48:49.646Z,101787.14
2019-04-11T13:51:24.853Z,101780.52
2019-04-11T13:54:08.579Z,101787.30
2019-04-11T13:56:55.129Z,101777.28
2019-04-11T13:59:40.156Z,101780.09
2019-04-11T14:02:15.709Z,101778.30
2019-04-11T14:04:46.142Z,101778.63
2019-04-11T14:07:23.649Z,101781.20
2019-04-11T14:09:53.242Z,101784.26
2019-04-11T14:12:21.972Z,101772.78
2019-04-11T14:15:11.286Z,101772.78
2019-04-11T14:17:53.824Z,101780.93
2019-04-11T14:21:21.013Z,101780.31
2019-04-11T14:23:57.268Z,101769.52
2019-04-11T14:26:40.193Z,101759.50
2019-04-11T14:29:39.479Z,101765.19
2019-04-11T14:32:44.046Z,101763.76
2019-04-11T14:35:42.377Z,101764.70
2019-04-11T14:42:21.096Z,101771.69
2019-04-11T14:44:47.073Z,101752.48
2019-04-11T14:47:40.547Z,101756.73
2019-04-11T14:50:06.095Z,101760.52
2019-04-11T14:52:53.313Z,101764.61
2019-04-11T14:55:19.676Z,101762.89
2019-04-11T14:57:55.452Z,101758.14
2019-04-11T15:00:34.252Z,101748.20
2019-04-11T15:03:24.482Z,101768.08
2019-04-11T15:06:07.382Z,101754.28
2019-04-11T15:08:50.443Z,101765.07
2019-04-11T15:11:47.857Z,101753.13
2019-04-11T15:14:20.467Z,101759.02
2019-04-11T15:17:24.288Z,101749.88
2019-04-11T15:19:54.994Z,101752.48
2019-04-11T15:22:39.283Z,101756.98
2019-04-11T15:25:21.483Z,101757.34
2019-04-11T15:28:01.900Z,101756.56
2019-04-11T15:30:28.050Z,101761.17
2019-04-11T15:33:24.299Z,101760.94
2019-04-11T15:35:50.057Z,101763.43
2019-04-11T15:38:36.742Z,101774.02
2019-04-11T15:41:02.347Z,101778.77
2019-04-11T15:43:53.055Z,101772.01
2019-04-11T15:46:35.330Z,101764.94
2019-04-11T15:49:21.105Z,101779.09
2019-04-11T15:51:58.977Z,101773.65
2019-04-11T15:54:46.448Z,101779.97
2019-04-11T15:57:29.475Z,101780.96
2019-04-11T16:00:14.296Z,101780.64
2019-04-11T16:03:01.626Z,101777.23
2019-04-11T16:05:42.829Z,101780.34
2019-04-11T16:08:22.794Z,101791.40
2019-04-11T16:11:13.375Z,101793.50
2019-04-11T16:13:45.365Z,101790.56
2019-04-11T16:16:12.211Z,101788.49
2019-04-11T16:19:06.118Z,101784.15
2019-04-11T16:21:54.889Z,101785.16
2019-04-11T16:24:27.600Z,101785.72
2019-04-11T16:27:03.047Z,101780.42
2019-04-11T16:29:32.972Z,101788.17
2019-04-11T16:32:00.725Z,101779.22
2019-04-11T16:34:47.875Z,101784.92
2019-04-11T16:37:06.461Z,101789.55
2019-04-11T16:39:52.061Z,101789.55
2019-04-11T16:42:21.858Z,101786.30
2019-04-11T16:45:06.056Z,101791.47
2019-04-11T16:48:00.207Z,101785.07
2019-04-11T16:50:25.726Z,101787.48
2019-04-11T16:52:51.088Z,101793.19
2019-04-11T16:55:21.008Z,101791.27
2019-04-11T16:57:46.447Z,101795.08
2019-04-11T17:00:12.979Z,101797.81
2019-04-11T17:02:38.423Z,101787.16
2019-04-11T17:05:04.018Z,101792.79
2019-04-11T17:07:42.859Z,101796.45
2019-04-11T17:10:08.841Z,101784.90
2019-04-11T17:12:34.119Z,101792.67
2019-04-11T17:15:01.690Z,101802.66
2019-04-11T17:17:31.009Z,101800.95
2019-04-11T17:19:56.840Z,101797.16
2019-04-11T17:22:22.838Z,101803.67
2019-04-11T17:24:48.863Z,101808.66
2019-04-11T17:27:14.328Z,101804.36
2019-04-11T17:29:40.562Z,101810.70
2019-04-11T17:32:06.297Z,101813.26
2019-04-11T17:34:32.941Z,101814.97
2019-04-11T17:37:02.543Z,101817.53
2019-04-11T17:39:27.189Z,101816.05
2019-04-11T17:41:53.145Z,101811.22
2019-04-11T17:44:20.922Z,101816.54
2019-04-11T17:46:56.428Z,101813.97
2019-04-11T17:49:21.193Z,101825.66
2019-04-11T17:51:55.784Z,101827.03
2019-04-11T17:54:14.506Z,101833.04
2019-04-11T17:56:40.024Z,101829.52
2019-04-11T17:59:05.603Z,101836.13
2019-04-11T18:01:33.414Z,101831.25
2019-04-11T18:03:59.243Z,101836.42
2019-04-11T18:06:24.986Z,101838.46
2019-04-11T18:08:51.567Z,101839.73
2019-04-11T18:11:18.387Z,101842.91
2019-04-11T18:13:44.216Z,101848.00
2019-04-11T18:16:09.977Z,101854.26
2019-04-11T18:18:35.899Z,101862.72
2019-04-11T18:21:01.629Z,101859.59
2019-04-11T18:23:27.394Z,101870.41
2019-04-11T18:25:53.137Z,101862.56
2019-04-11T18:28:21.689Z,101869.65
2019-04-11T18:30:47.054Z,101860.13
2019-04-11T18:33:13.021Z,101868.39
2019-04-11T18:35:39.279Z,101875.22
2019-04-11T18:38:05.207Z,101868.30
2019-04-11T18:40:31.342Z,101879.46
2019-04-11T18:42:57.125Z,101872.05
2019-04-11T18:45:22.951Z,101879.72
2019-04-11T18:47:48.793Z,101887.87
2019-04-11T18:50:14.998Z,101889.25
2019-04-11T18:52:40.842Z,101894.32
2019-04-11T18:55:08.819Z,101891.27
2019-04-11T18:57:34.761Z,101890.92
2019-04-11T19:00:02.385Z,101895.85
2019-04-11T19:02:28.832Z,101892.31
2019-04-11T19:04:54.560Z,101901.36
2019-04-11T19:07:27.625Z,101905.70
2019-04-11T19:09:47.742Z,101906.27
2019-04-11T19:12:15.888Z,101910.87
2019-04-11T19:14:43.846Z,101903.39
2019-04-11T19:17:09.064Z,101909.72
2019-04-11T19:19:34.839Z,101905.30
2019-04-11T19:22:01.007Z,101907.37
2019-04-11T19:24:35.496Z,101911.87
2019-04-11T19:26:57.090Z,101909.34
2019-04-11T19:29:25.007Z,101916.67
2019-04-11T19:31:50.623Z,101931.28
2019-04-11T19:34:16.757Z,101923.52
2019-04-11T19:36:43.095Z,101925.05
2019-04-11T19:39:13.659Z,101926.45
2019-04-11T19:41:38.498Z,101930.11
2019-04-11T19:44:04.608Z,101932.70
2019-04-11T19:46:30.364Z,101924.53
2019-04-11T19:48:59.308Z,101931.55
2019-04-11T19:51:23.545Z,101926.88
2019-04-11T19:53:49.725Z,101932.95
2019-04-11T19:56:20.426Z,101924.05
2019-04-11T19:58:46.635Z,101932.38
2019-04-11T20:01:12.462Z,101922.16
2019-04-11T20:03:38.293Z,101928.96
2019-04-11T20:06:04.154Z,101932.44
2019-04-11T20:08:35.926Z,101940.84
2019-04-11T20:11:03.114Z,101937.59
2019-04-11T20:13:31.918Z,101935.91
2019-04-11T20:15:56.403Z,101941.50
2019-04-11T20:18:23.186Z,101938.85
2019-04-11T20:20:52.131Z,101934.42
2019-04-11T20:23:16.994Z,101936.25
2019-04-11T20:25:45.731Z,101942.55
2019-04-11T20:28:11.340Z,101940.33
2019-04-11T20:30:37.100Z,101931.05
2019-04-11T20:33:03.747Z,101936.55
2019-04-11T20:35:29.666Z,101938.75
2019-04-11T20:37:55.710Z,101929.13
2019-04-11T20:40:23.315Z,101933.48
2019-04-11T20:43:17.315Z,101933.81
2019-04-11T20:45:43.787Z,101931.11
2019-04-11T20:48:09.830Z,101931.48
2019-04-11T20:50:35.766Z,101939.96
2019-04-11T20:53:12.081Z,101938.27
2019-04-11T20:55:29.147Z,101937.45
2019-04-11T20:57:54.828Z,101940.53
2019-04-11T21:00:20.601Z,101938.16
2019-04-11T21:02:46.519Z,101941.30
2019-04-11T21:05:12.137Z,101950.25
2019-04-11T21:07:39.185Z,101945.75
2019-04-11T21:10:05.203Z,101951.03
2019-04-11T21:12:30.721Z,101950.59
2019-04-11T21:14:56.343Z,101942.95
2019-04-11T21:17:21.815Z,101945.95
2019-04-11T21:19:47.138Z,101951.47
2019-04-11T21:22:12.687Z,101949.21
2019-04-11T21:24:38.144Z,101951.44
2019-04-11T21:27:03.704Z,101949.70
2019-04-11T21:29:30.229Z,101955.37
2019-04-11T21:31:56.137Z,101953.14
2019-04-11T21:34:21.591Z,101949.63
2019-04-11T21:36:47.078Z,101952.63
2019-04-11T21:39:12.570Z,101955.67
2019-04-11T21:41:38.195Z,101962.86
2019-04-11T21:44:06.084Z,101958.51
2019-04-11T21:46:31.706Z,101957.14
2019-04-11T21:48:57.121Z,101964.29
2019-04-11T21:51:22.771Z,101968.78
2019-04-11T21:53:48.219Z,101972.75
2019-04-11T21:56:16.019Z,101973.09
2019-04-11T21:58:41.223Z,101971.49
2019-04-11T22:01:14.279Z,101974.75
2019-04-11T22:03:40.114Z,101974.27
2019-04-11T22:06:05.765Z,101969.67
2019-04-11T22:08:31.932Z,101966.42
2019-04-11T22:10:58.685Z,101962.01
2019-04-11T22:13:24.211Z,101971.44
2019-04-11T22:15:49.697Z,101963.21
2019-04-11T22:18:16.743Z,101969.84
2019-04-11T22:20:42.466Z,101974.70
2019-04-11T22:23:07.934Z,101960.60
2019-04-11T22:25:33.328Z,101969.72
2019-04-11T22:27:58.857Z,101971.02
2019-04-11T22:30:25.308Z,101971.39
2019-04-11T22:33:16.636Z,101972.94
2019-04-11T22:35:42.245Z,101974.98
2019-04-11T22:38:07.621Z,101972.36
2019-04-11T22:40:33.190Z,101978.19
2019-04-11T22:42:58.892Z,101978.70
2019-04-11T22:45:24.363Z,101977.03
2019-04-11T22:47:50.056Z,101981.27
2019-04-11T22:50:15.527Z,101975.66
2019-04-11T22:52:42.233Z,101977.39
2019-04-11T22:55:11.015Z,101979.84
2019-04-11T22:57:35.566Z,101980.50
2019-04-11T23:00:01.004Z,101980.14
2019-04-11T23:02:41.317Z,101977.61
2019-04-11T23:05:06.801Z,101977.59
2019-04-11T23:07:32.331Z,101976.37
2019-04-11T23:09:57.800Z,101979.75
2019-04-11T23:12:23.156Z,101974.42
2019-04-11T23:14:48.873Z,101979.73
2019-04-11T23:17:14.813Z,101981.44
2019-04-11T23:19:41.815Z,101987.61
2019-04-11T23:22:07.370Z,101982.47
2019-04-11T23:24:32.870Z,101982.72
2019-04-11T23:26:58.316Z,101982.19
2019-04-11T23:29:23.683Z,101980.73
2019-04-11T23:31:50.858Z,101987.91
2019-04-11T23:34:16.215Z,101981.61
2019-04-11T23:36:41.677Z,101989.02
2019-04-11T23:39:08.282Z,101984.94
2019-04-11T23:41:34.073Z,101993.33
2019-04-11T23:43:59.508Z,101992.52
2019-04-11T23:46:25.419Z,101993.59
2019-04-11T23:48:54.729Z,101996.14
2019-04-11T23:53:42.103Z,101999.81
2019-04-11T23:56:07.519Z,102003.08
2019-04-11T23:58:32.947Z,102001.19
